createdAt,value
2018-02-12T00:00:52.276Z,12.43
2018-02-12T00:03:19.011Z,12.13
2018-02-12T00:05:45.617Z,13.25
2018-02-12T00:08:12.072Z,13.60
2018-02-12T00:10:38.557Z,13.55
2018-02-12T00:13:04.978Z,12.88
2018-02-12T00:15:31.452Z,13.57
2018-02-12T00:17:58.248Z,16.08
2018-02-12T00:20:24.756Z,14.67
2018-02-12T00:22:51.161Z,14.48
2018-02-12T00:25:17.624Z,14.25
2018-02-12T00:27:44.045Z,13.60
2018-02-12T00:30:10.528Z,15.15
2018-02-12T00:32:37.572Z,14.17
2018-02-12T00:35:04.054Z,16.30
2018-02-12T00:37:30.530Z,13.90
2018-02-12T00:39:57.469Z,14.68
2018-02-12T00:42:24.061Z,16.08
2018-02-12T00:44:50.518Z,16.33
2018-02-12T00:47:17.037Z,15.80
2018-02-12T00:49:43.449Z,14.50
2018-02-12T00:52:10.592Z,16.83
2018-02-12T00:54:37.062Z,16.53
2018-02-12T00:57:03.502Z,16.80
2018-02-12T00:59:29.909Z,18.02
2018-02-12T01:01:57.205Z,15.88
2018-02-12T01:04:23.809Z,15.95
2018-02-12T01:06:50.228Z,16.67
2018-02-12T01:09:16.672Z,19.15
2018-02-12T01:11:43.121Z,16.50
2018-02-12T01:14:10.398Z,15.48
2018-02-12T01:16:37.130Z,16.27
2018-02-12T01:19:03.601Z,14.57
2018-02-12T01:21:30.065Z,16.73
2018-02-12T01:23:57.607Z,14.82
2018-02-12T01:26:24.839Z,15.07
2018-02-12T01:28:51.276Z,12.63
2018-02-12T01:31:17.890Z,12.52
2018-02-12T01:33:44.321Z,15.10
2018-02-12T01:36:11.574Z,13.38
2018-02-12T01:38:38.041Z,14.38
2018-02-12T01:41:04.468Z,15.55
2018-02-12T01:43:30.917Z,14.30
2018-02-12T01:45:57.425Z,11.77
2018-02-12T01:48:23.932Z,12.85
2018-02-12T01:50:50.420Z,12.55
2018-02-12T01:53:16.934Z,14.83
2018-02-12T01:55:43.370Z,13.62
2018-02-12T01:58:09.827Z,13.23
2018-02-12T02:00:37.246Z,14.30
2018-02-12T02:03:03.661Z,12.93
2018-02-12T02:05:30.060Z,13.83
2018-02-12T02:07:56.665Z,12.95
2018-02-12T02:10:23.110Z,13.90
2018-02-12T02:12:49.548Z,13.50
2018-02-12T02:15:15.997Z,13.67
2018-02-12T02:17:42.455Z,15.57
2018-02-12T02:20:08.900Z,14.43
2018-02-12T02:22:35.671Z,13.80
2018-02-12T02:25:02.098Z,15.88
2018-02-12T02:27:28.574Z,14.77
2018-02-12T02:29:55.770Z,14.77
2018-02-12T02:32:22.236Z,15.88
2018-02-12T02:34:48.643Z,15.85
2018-02-12T02:37:15.080Z,16.12
2018-02-12T02:39:41.541Z,18.05
2018-02-12T02:42:07.942Z,16.30
2018-02-12T02:44:34.774Z,20.37
2018-02-12T02:47:01.973Z,19.77
2018-02-12T02:49:28.461Z,19.87
2018-02-12T02:51:55.253Z,18.53
2018-02-12T02:54:21.648Z,19.23
2018-02-12T02:56:48.062Z,19.17
2018-02-12T02:59:14.571Z,18.65
2018-02-12T03:01:41.781Z,19.97
2018-02-12T03:04:08.274Z,20.07
2018-02-12T03:06:34.722Z,17.55
2018-02-12T03:09:01.107Z,16.65
2018-02-12T03:11:27.545Z,16.95
2018-02-12T03:13:54.782Z,17.83
2018-02-12T03:16:21.263Z,16.00
2018-02-12T03:18:47.724Z,16.55
2018-02-12T03:21:14.558Z,18.35
2018-02-12T03:23:41.763Z,17.25
2018-02-12T03:26:08.182Z,18.00
2018-02-12T03:28:34.645Z,18.65
2018-02-12T03:31:01.891Z,18.50
2018-02-12T03:33:29.172Z,18.10
2018-02-12T03:35:55.729Z,17.15
2018-02-12T03:38:22.169Z,17.10
2018-02-12T03:40:48.533Z,16.23
2018-02-12T03:43:14.959Z,20.12
2018-02-12T03:45:52.309Z,18.92
2018-02-12T03:48:18.842Z,16.40
2018-02-12T03:50:45.344Z,16.93
2018-02-12T03:53:12.500Z,19.52
2018-02-12T03:55:39.250Z,19.37
2018-02-12T03:58:05.665Z,18.67
2018-02-12T04:00:32.140Z,17.70
2018-02-12T04:02:58.628Z,20.77
2018-02-12T04:05:25.119Z,18.10
2018-02-12T04:07:51.505Z,18.58
2018-02-12T04:10:17.956Z,19.23
2018-02-12T04:12:44.368Z,18.40
2018-02-12T04:15:11.553Z,19.90
2018-02-12T04:17:38.010Z,18.90
2018-02-12T04:20:04.496Z,20.62
2018-02-12T04:22:31.682Z,19.27
2018-02-12T04:24:58.550Z,18.25
2018-02-12T04:27:25.016Z,18.92
2018-02-12T04:29:52.132Z,21.48
2018-02-12T04:32:19.333Z,19.58
2018-02-12T04:34:46.536Z,20.52
2018-02-12T04:37:12.988Z,19.67
2018-02-12T04:39:40.216Z,21.65
2018-02-12T04:42:06.688Z,22.60
2018-02-12T04:44:33.132Z,22.53
2018-02-12T04:47:00.543Z,21.75
2018-02-12T04:49:27.052Z,22.95
2018-02-12T04:51:53.473Z,22.40
2018-02-12T04:54:19.979Z,23.30
2018-02-12T04:56:47.140Z,24.23
2018-02-12T04:59:14.290Z,21.85
2018-02-12T05:01:41.468Z,28.27
2018-02-12T05:04:07.933Z,25.08
2018-02-12T05:06:34.400Z,25.02
2018-02-12T05:09:01.121Z,26.65
2018-02-12T05:11:27.534Z,24.55
2018-02-12T05:13:53.955Z,25.73
2018-02-12T05:16:20.389Z,27.30
2018-02-12T05:18:46.768Z,26.75
2018-02-12T05:21:13.932Z,25.17
2018-02-12T05:23:41.480Z,25.70
2018-02-12T05:26:07.930Z,26.40
2018-02-12T05:28:35.101Z,29.52
2018-02-12T05:31:01.560Z,27.77
2018-02-12T05:33:28.121Z,26.33
2018-02-12T05:35:54.561Z,28.20
2018-02-12T05:38:21.298Z,26.30
2018-02-12T05:40:47.753Z,28.05
2018-02-12T05:43:14.151Z,27.48
2018-02-12T05:45:40.982Z,28.12
2018-02-12T05:48:07.429Z,24.37
2018-02-12T05:50:33.844Z,24.00
2018-02-12T05:53:00.670Z,28.50
2018-02-12T05:55:27.083Z,27.13
2018-02-12T05:57:54.258Z,24.48
2018-02-12T06:00:20.724Z,25.47
2018-02-12T06:02:47.168Z,27.48
2018-02-12T06:05:13.574Z,25.98
2018-02-12T06:07:40.014Z,27.48
2018-02-12T06:10:06.430Z,27.08
2018-02-12T06:12:32.833Z,26.00
2018-02-12T06:14:59.427Z,26.08
2018-02-12T06:17:26.594Z,27.60
2018-02-12T06:19:52.981Z,25.08
2018-02-12T06:22:20.054Z,26.20
2018-02-12T06:24:46.420Z,26.70
2018-02-12T06:27:12.770Z,27.50
2018-02-12T06:29:40.296Z,25.27
2018-02-12T06:32:06.797Z,25.23
2018-02-12T06:34:33.225Z,24.95
2018-02-12T06:36:59.828Z,23.43
2018-02-12T06:39:26.311Z,25.02
2018-02-12T06:41:52.760Z,22.77
2018-02-12T06:44:19.204Z,25.15
2018-02-12T06:46:45.774Z,23.62
2018-02-12T06:49:12.899Z,26.20
2018-02-12T06:51:39.623Z,25.25
2018-02-12T06:54:06.766Z,25.17
2018-02-12T06:56:33.230Z,25.80
2018-02-12T06:58:59.712Z,24.63
2018-02-12T07:01:26.217Z,23.93
2018-02-12T07:03:53.482Z,25.13
2018-02-12T07:06:19.960Z,24.10
2018-02-12T07:08:46.396Z,23.37
2018-02-12T07:11:12.861Z,24.70
2018-02-12T07:13:39.431Z,24.47
2018-02-12T07:16:05.935Z,23.70
2018-02-12T07:18:32.409Z,26.67
2018-02-12T07:20:58.959Z,26.13
2018-02-12T07:23:25.432Z,32.40
2018-02-12T07:25:52.044Z,25.70
2018-02-12T07:28:18.504Z,25.53
2018-02-12T07:30:44.976Z,27.43
2018-02-12T07:33:11.451Z,27.80
2018-02-12T07:35:38.187Z,23.90
2018-02-12T07:38:05.368Z,24.97
2018-02-12T07:40:39.215Z,24.60
2018-02-12T07:43:05.645Z,24.90
2018-02-12T07:45:32.233Z,25.87
2018-02-12T07:47:58.775Z,23.97
2018-02-12T07:50:25.164Z,25.23
2018-02-12T07:52:51.556Z,24.70
2018-02-12T07:55:18.087Z,22.70
2018-02-12T07:57:44.562Z,23.00
2018-02-12T08:00:11.769Z,23.17
2018-02-12T08:02:38.224Z,23.40
2018-02-12T08:05:05.426Z,23.43
2018-02-12T08:07:32.613Z,23.87
2018-02-12T08:10:00.241Z,19.77
2018-02-12T08:12:26.774Z,21.93
2018-02-12T08:14:53.329Z,21.87
2018-02-12T08:17:20.286Z,20.77
2018-02-12T08:19:47.458Z,23.27
2018-02-12T08:22:13.910Z,21.40
2018-02-12T08:24:40.376Z,18.67
2018-02-12T08:27:06.786Z,19.53
2018-02-12T08:29:33.264Z,20.33
2018-02-12T08:31:59.762Z,21.20
2018-02-12T08:34:26.183Z,18.53
2018-02-12T08:36:52.655Z,21.83
2018-02-12T08:39:19.168Z,20.30
2018-02-12T08:41:45.634Z,21.47
2018-02-12T08:44:12.029Z,20.37
2018-02-12T08:46:39.244Z,23.87
2018-02-12T08:49:05.668Z,20.40
2018-02-12T08:51:32.831Z,21.67
2018-02-12T08:53:59.821Z,22.80
2018-02-12T08:56:26.232Z,21.13
2018-02-12T08:58:52.580Z,22.20
2018-02-12T09:01:19.061Z,20.90
2018-02-12T09:03:45.571Z,22.30
2018-02-12T09:06:11.989Z,22.43
2018-02-12T09:08:38.445Z,19.43
2018-02-12T09:11:04.910Z,19.17
2018-02-12T09:13:31.307Z,18.77
2018-02-12T09:15:57.772Z,19.37
2018-02-12T09:18:24.901Z,19.27
2018-02-12T09:20:51.393Z,19.93
2018-02-12T09:23:17.995Z,19.73
2018-02-12T09:25:45.326Z,19.27
2018-02-12T09:28:11.801Z,19.00
2018-02-12T09:30:38.266Z,18.53
2018-02-12T09:33:04.659Z,18.03
2018-02-12T09:35:31.096Z,17.63
2018-02-12T09:37:58.744Z,17.23
2018-02-12T09:40:25.156Z,17.37
2018-02-12T09:42:51.604Z,18.93
2018-02-12T09:45:18.100Z,17.97
2018-02-12T09:47:44.741Z,18.53
2018-02-12T09:50:11.132Z,18.40
2018-02-12T09:52:37.632Z,18.90
2018-02-12T09:55:04.187Z,19.77
2018-02-12T09:57:30.720Z,17.33
2018-02-12T09:59:57.282Z,17.43
2018-02-12T10:02:24.450Z,17.03
2018-02-12T10:04:50.846Z,18.67
2018-02-12T10:07:17.340Z,14.13
2018-02-12T10:09:43.778Z,17.30
2018-02-12T10:12:10.244Z,16.10
2018-02-12T10:14:36.719Z,17.83
2018-02-12T10:17:03.329Z,17.07
2018-02-12T10:19:30.564Z,16.97
2018-02-12T10:21:56.998Z,12.37
2018-02-12T10:24:23.568Z,16.53
2018-02-12T10:26:49.995Z,15.37
2018-02-12T10:29:16.425Z,14.77
2018-02-12T10:31:43.629Z,15.10
2018-02-12T10:34:10.017Z,14.30
2018-02-12T10:36:36.527Z,16.23
2018-02-12T10:39:03.397Z,15.40
2018-02-12T10:41:29.846Z,14.73
2018-02-12T10:43:56.298Z,14.80
2018-02-12T10:46:22.760Z,14.90
2018-02-12T10:48:49.234Z,13.73
2018-02-12T10:51:16.453Z,13.93
2018-02-12T10:53:43.004Z,14.23
2018-02-12T10:56:09.416Z,14.30
2018-02-12T10:58:35.923Z,15.87
2018-02-12T11:01:02.657Z,12.90
2018-02-12T11:03:29.125Z,13.50
2018-02-12T11:05:55.785Z,13.90
2018-02-12T11:08:22.323Z,12.87
2018-02-12T11:10:48.926Z,11.00
2018-02-12T11:13:15.415Z,13.93
2018-02-12T11:15:41.956Z,12.40
2018-02-12T11:18:08.490Z,12.50
2018-02-12T11:20:35.002Z,12.77
2018-02-12T11:23:01.589Z,12.50
2018-02-12T11:25:28.089Z,12.97
2018-02-12T11:27:54.520Z,12.13
2018-02-12T11:30:21.026Z,10.60
2018-02-12T11:32:47.475Z,12.07
2018-02-12T11:35:14.631Z,11.60
2018-02-12T11:37:41.846Z,12.53
2018-02-12T11:40:08.300Z,10.70
2018-02-12T11:42:34.886Z,8.40
2018-02-12T11:45:01.442Z,12.90
2018-02-12T11:47:27.922Z,11.97
2018-02-12T11:49:55.205Z,10.03
2018-02-12T11:52:22.480Z,9.43
2018-02-12T11:54:48.929Z,10.23
2018-02-12T11:57:15.513Z,9.30
2018-02-12T11:59:42.024Z,9.13
2018-02-12T12:02:08.564Z,9.73
2018-02-12T12:04:35.018Z,9.23
2018-02-12T12:07:01.554Z,8.03
2018-02-12T12:09:28.408Z,8.23
2018-02-12T12:11:55.620Z,9.07
2018-02-12T12:14:22.071Z,10.30
2018-02-12T12:16:48.536Z,7.57
2018-02-12T12:19:14.966Z,6.73
2018-02-12T12:21:41.455Z,6.47
2018-02-12T12:24:07.941Z,6.57
2018-02-12T12:26:34.421Z,6.23
2018-02-12T12:29:00.932Z,7.60
2018-02-12T12:31:27.479Z,5.70
2018-02-12T12:33:54.029Z,6.53
2018-02-12T12:36:20.467Z,6.27
2018-02-12T12:38:46.980Z,7.30
2018-02-12T12:41:13.477Z,6.83
2018-02-12T12:43:39.901Z,5.57
2018-02-12T12:46:06.497Z,6.77
2018-02-12T12:48:32.951Z,5.83
2018-02-12T12:51:00.133Z,4.80
2018-02-12T12:53:27.571Z,5.53
2018-02-12T12:55:54.005Z,4.33
2018-02-12T12:58:20.424Z,5.00
2018-02-12T13:00:47.017Z,4.63
2018-02-12T13:03:13.488Z,10.70
2018-02-12T13:05:39.958Z,3.90
2018-02-12T13:08:06.453Z,4.83
2018-02-12T13:10:32.873Z,4.23
2018-02-12T13:12:59.344Z,2.67
2018-02-12T13:15:26.899Z,2.60
2018-02-12T13:17:53.353Z,4.80
2018-02-12T13:20:20.540Z,4.70
2018-02-12T13:22:47.102Z,4.83
2018-02-12T13:25:14.684Z,4.00
2018-02-12T13:27:41.199Z,4.27
2018-02-12T13:30:07.807Z,3.47
2018-02-12T13:32:34.278Z,6.40
2018-02-12T13:35:00.768Z,3.23
2018-02-12T13:37:27.325Z,3.70
2018-02-12T13:39:54.509Z,3.67
2018-02-12T13:42:20.935Z,4.43
2018-02-12T13:44:47.495Z,3.97
2018-02-12T13:47:14.658Z,3.87
2018-02-12T13:49:42.018Z,3.67
2018-02-12T13:52:08.631Z,3.77
2018-02-12T13:54:35.169Z,3.87
2018-02-12T13:57:01.615Z,3.23
2018-02-12T13:59:28.121Z,3.50
2018-02-12T14:01:54.527Z,2.90
2018-02-12T14:04:21.037Z,3.67
2018-02-12T14:06:47.593Z,2.87
2018-02-12T14:09:14.124Z,3.83
2018-02-12T14:11:40.638Z,2.70
2018-02-12T14:14:07.138Z,3.67
2018-02-12T14:16:33.520Z,4.10
2018-02-12T14:18:59.993Z,3.73
2018-02-12T14:21:26.599Z,2.90
2018-02-12T14:23:53.044Z,3.03
2018-02-12T14:26:19.504Z,2.80
2018-02-12T14:28:45.994Z,2.93
2018-02-12T14:31:12.567Z,3.93
2018-02-12T14:33:38.982Z,4.10
2018-02-12T14:36:05.809Z,4.23
2018-02-12T14:38:32.267Z,7.77
2018-02-12T14:40:58.763Z,3.20
2018-02-12T14:43:25.786Z,4.10
2018-02-12T14:45:52.286Z,3.73
2018-02-12T14:48:18.996Z,4.00
2018-02-12T14:50:46.217Z,3.10
2018-02-12T14:53:12.736Z,4.23
2018-02-12T14:55:39.224Z,3.70
2018-02-12T14:58:05.725Z,2.43
2018-02-12T15:00:32.165Z,3.13
2018-02-12T15:02:58.690Z,2.47
2018-02-12T15:05:25.145Z,2.60
2018-02-12T15:07:52.299Z,4.13
2018-02-12T15:10:18.696Z,3.80
2018-02-12T15:12:45.313Z,3.27
2018-02-12T15:15:11.760Z,3.83
2018-02-12T15:17:38.262Z,3.23
2018-02-12T15:20:04.883Z,3.10
2018-02-12T15:22:31.360Z,3.13
2018-02-12T15:24:57.833Z,2.90
2018-02-12T15:27:24.362Z,3.57
2018-02-12T15:29:50.841Z,3.70
2018-02-12T15:32:17.298Z,3.30
2018-02-12T15:34:43.877Z,3.17
2018-02-12T15:37:10.296Z,2.73
2018-02-12T15:39:36.814Z,4.00
2018-02-12T15:42:03.253Z,2.87
2018-02-12T15:44:29.712Z,4.80
2018-02-12T15:46:56.172Z,3.27
2018-02-12T15:49:22.604Z,2.97
2018-02-12T15:51:49.061Z,3.83
2018-02-12T15:54:15.593Z,2.50
2018-02-12T15:56:42.443Z,3.23
2018-02-12T15:59:09.004Z,3.30
2018-02-12T16:01:35.449Z,3.53
2018-02-12T16:04:02.773Z,3.33
2018-02-12T16:06:29.329Z,3.60
2018-02-12T16:08:55.905Z,3.83
2018-02-12T16:11:22.393Z,3.17
2018-02-12T16:13:49.678Z,2.80
2018-02-12T16:16:16.875Z,2.57
2018-02-12T16:18:43.486Z,3.20
2018-02-12T16:21:10.839Z,2.80
2018-02-12T16:23:37.357Z,3.13
2018-02-12T16:26:04.947Z,3.07
2018-02-12T16:28:31.345Z,3.10
2018-02-12T16:30:57.883Z,3.03
2018-02-12T16:33:25.157Z,3.10
2018-02-12T16:35:51.663Z,3.00
2018-02-12T16:38:19.941Z,3.10
2018-02-12T16:40:46.426Z,3.10
2018-02-12T16:43:12.826Z,3.13
2018-02-12T16:45:40.142Z,4.33
2018-02-12T16:48:07.575Z,3.67
2018-02-12T16:50:41.007Z,3.33
2018-02-12T16:53:07.481Z,3.20
2018-02-12T16:55:34.279Z,3.83
2018-02-12T16:58:00.735Z,3.70
2018-02-12T17:00:27.209Z,3.93
2018-02-12T17:02:53.964Z,3.40
2018-02-12T17:05:20.619Z,4.30
2018-02-12T17:07:47.093Z,3.50
2018-02-12T17:10:14.299Z,3.67
2018-02-12T17:12:40.750Z,3.20
2018-02-12T17:15:07.934Z,3.33
2018-02-12T17:17:34.495Z,3.77
2018-02-12T17:20:00.953Z,3.70
2018-02-12T17:22:27.478Z,3.80
2018-02-12T17:24:53.946Z,4.63
2018-02-12T17:27:20.621Z,3.80
2018-02-12T17:29:47.099Z,4.27
2018-02-12T17:32:13.484Z,4.43
2018-02-12T17:34:42.281Z,3.40
2018-02-12T17:37:08.839Z,3.43
2018-02-12T17:39:35.236Z,3.33
2018-02-12T17:42:01.956Z,3.77
2018-02-12T17:44:28.373Z,4.47
2018-02-12T17:46:54.824Z,5.10
2018-02-12T17:49:22.446Z,4.47
2018-02-12T17:51:48.892Z,3.33
2018-02-12T17:54:15.340Z,4.10
2018-02-12T17:56:43.154Z,3.50
2018-02-12T17:59:10.240Z,2.90
2018-02-12T18:01:37.611Z,3.23
2018-02-12T18:04:04.248Z,3.50
2018-02-12T18:06:31.617Z,4.07
2018-02-12T18:08:58.784Z,4.17
2018-02-12T18:11:26.093Z,3.53
2018-02-12T18:13:52.868Z,3.53
2018-02-12T18:16:19.424Z,3.53
2018-02-12T18:18:46.787Z,4.17
2018-02-12T18:21:14.032Z,5.03
2018-02-12T18:23:40.597Z,3.50
2018-02-12T18:26:08.037Z,4.27
2018-02-12T18:28:34.503Z,2.90
2018-02-12T18:31:00.886Z,4.37
2018-02-12T18:33:28.403Z,4.23
2018-02-12T18:35:54.879Z,4.50
2018-02-12T18:38:21.956Z,4.00
2018-02-12T18:40:48.638Z,4.07
2018-02-12T18:43:15.095Z,4.47
2018-02-12T18:45:41.520Z,3.43
2018-02-12T18:48:09.023Z,4.53
2018-02-12T18:50:35.414Z,4.40
2018-02-12T18:53:01.862Z,6.17
2018-02-12T18:55:29.381Z,3.57
2018-02-12T18:57:55.865Z,3.53
2018-02-12T19:00:23.500Z,3.63
2018-02-12T19:02:50.754Z,4.60
2018-02-12T19:05:17.943Z,4.23
2018-02-12T19:07:44.424Z,5.77
2018-02-12T19:10:11.004Z,4.37
2018-02-12T19:12:38.170Z,3.93
2018-02-12T19:15:04.572Z,3.33
2018-02-12T19:17:32.697Z,4.17
2018-02-12T19:19:59.179Z,3.33
2018-02-12T19:22:25.768Z,2.97
2018-02-12T19:24:53.105Z,3.80
2018-02-12T19:27:19.755Z,3.73
2018-02-12T19:29:46.147Z,3.43
2018-02-12T19:32:13.539Z,3.47
2018-02-12T19:34:39.980Z,3.03
2018-02-12T19:37:06.381Z,2.97
2018-02-12T19:39:33.144Z,2.97
2018-02-12T19:41:59.576Z,2.75
2018-02-12T19:44:26.072Z,2.87
2018-02-12T19:46:52.519Z,3.57
2018-02-12T19:49:19.730Z,3.57
2018-02-12T19:51:46.212Z,2.90
2018-02-12T19:54:13.708Z,2.93
2018-02-12T19:56:40.916Z,3.50
2018-02-12T19:59:08.191Z,2.70
2018-02-12T20:01:34.673Z,3.70
2018-02-12T20:04:01.520Z,3.23
2018-02-12T20:06:28.738Z,2.57
2018-02-12T20:08:55.966Z,3.10
2018-02-12T20:11:22.400Z,2.30
2018-02-12T20:13:48.784Z,2.73
2018-02-12T20:16:15.184Z,2.30
2018-02-12T20:18:42.400Z,2.70
2018-02-12T20:21:08.915Z,2.53
2018-02-12T20:23:35.433Z,1.80
2018-02-12T20:26:02.016Z,1.90
2018-02-12T20:28:29.196Z,1.73
2018-02-12T20:30:56.160Z,1.37
2018-02-12T20:33:22.658Z,1.70
2018-02-12T20:35:49.137Z,2.63
2018-02-12T20:38:16.297Z,1.40
2018-02-12T20:40:43.150Z,2.10
2018-02-12T20:43:09.603Z,1.62
2018-02-12T20:45:36.737Z,2.33
2018-02-12T20:48:03.819Z,2.63
2018-02-12T20:50:30.240Z,1.87
2018-02-12T20:52:56.696Z,2.23
2018-02-12T20:55:23.548Z,3.43
2018-02-12T20:57:50.301Z,2.20
2018-02-12T21:00:16.928Z,3.43
2018-02-12T21:02:43.422Z,2.67
2018-02-12T21:05:10.794Z,1.83
2018-02-12T21:07:37.260Z,2.17
2018-02-12T21:10:03.724Z,2.00
2018-02-12T21:12:30.121Z,2.10
2018-02-12T21:14:56.614Z,2.20
2018-02-12T21:17:23.231Z,2.20
2018-02-12T21:19:50.384Z,2.87
2018-02-12T21:22:16.915Z,63.57
2018-02-12T21:24:43.397Z,1.80
2018-02-12T21:27:09.855Z,1.43
2018-02-12T21:29:36.332Z,1.77
2018-02-12T21:32:02.823Z,1.97
2018-02-12T21:34:29.248Z,1.97
2018-02-12T21:36:55.766Z,1.50
2018-02-12T21:39:22.486Z,1.60
2018-02-12T21:41:48.900Z,1.40
2018-02-12T21:44:15.363Z,1.40
2018-02-12T21:46:42.660Z,1.37
2018-02-12T21:49:09.172Z,1.50
2018-02-12T21:51:35.586Z,1.13
2018-02-12T21:54:02.809Z,1.30
2018-02-12T21:56:29.213Z,1.62
2018-02-12T21:58:55.658Z,1.60
2018-02-12T22:01:23.214Z,1.80
2018-02-12T22:03:49.612Z,1.30
2018-02-12T22:06:16.123Z,1.00
2018-02-12T22:08:42.672Z,1.15
2018-02-12T22:11:09.856Z,1.63
2018-02-12T22:13:36.256Z,1.10
2018-02-12T22:16:03.609Z,1.50
2018-02-12T22:18:30.062Z,1.43
2018-02-12T22:20:56.448Z,1.57
2018-02-12T22:23:22.988Z,1.83
2018-02-12T23:22:48.804Z,1.30
2018-02-12T23:25:15.166Z,1.50
2018-02-12T23:27:41.557Z,1.73
2018-02-12T23:30:08.323Z,1.30
2018-02-12T23:32:34.860Z,1.50
2018-02-12T23:35:02.041Z,2.00
2018-02-12T23:37:28.474Z,1.75
2018-02-12T23:39:54.873Z,1.40
2018-02-12T23:42:21.292Z,1.80
2018-02-12T23:44:47.806Z,1.30
2018-02-12T23:47:14.958Z,1.33
2018-02-12T23:49:41.365Z,1.40
2018-02-12T23:52:07.877Z,1.70
2018-02-12T23:54:35.073Z,1.27
2018-02-12T23:57:01.540Z,1.83
2018-02-12T23:59:28.552Z,1.77
